createdAt,value
2018-10-11T00:00:07.508Z,13.47
2018-10-11T00:00:48.329Z,12.57
2018-10-11T00:01:34.471Z,13.60
2018-10-11T00:02:17.175Z,15.10
2018-10-11T00:02:58.093Z,13.83
2018-10-11T00:03:40.600Z,14.37
2018-10-11T00:04:21.880Z,13.80
2018-10-11T00:05:03.012Z,13.77
2018-10-11T00:05:43.325Z,12.87
2018-10-11T00:06:23.656Z,14.27
2018-10-11T00:07:06.537Z,14.03
2018-10-11T00:07:48.179Z,13.80
2018-10-11T00:08:28.776Z,12.57
2018-10-11T00:09:10.153Z,13.87
2018-10-11T00:09:50.084Z,16.13
2018-10-11T00:10:30.388Z,13.60
2018-10-11T00:11:10.582Z,13.50
2018-10-11T00:11:50.725Z,14.20
2018-10-11T00:12:30.768Z,14.10
2018-10-11T00:13:10.900Z,13.67
2018-10-11T00:13:51.496Z,14.37
2018-10-11T00:14:31.731Z,13.70
2018-10-11T00:15:12.109Z,13.60
2018-10-11T00:15:52.314Z,14.00
2018-10-11T00:16:32.436Z,13.60
2018-10-11T00:17:12.387Z,13.30
2018-10-11T00:17:52.710Z,13.33
2018-10-11T00:18:33.145Z,13.17
2018-10-11T00:19:13.218Z,13.83
2018-10-11T00:19:53.551Z,13.87
2018-10-11T00:20:34.118Z,13.33
2018-10-11T00:21:14.220Z,13.60
2018-10-11T00:21:54.554Z,13.07
2018-10-11T00:22:35.216Z,14.13
2018-10-11T00:23:15.865Z,12.90
2018-10-11T00:23:56.443Z,12.97
2018-10-11T00:24:36.760Z,13.33
2018-10-11T00:25:17.032Z,13.97
2018-10-11T00:25:57.131Z,14.67
2018-10-11T00:26:37.722Z,13.53
2018-10-11T00:27:17.988Z,14.00
2018-10-11T00:27:57.989Z,13.57
2018-10-11T00:28:38.733Z,13.53
2018-10-11T00:29:18.866Z,13.27
2018-10-11T00:29:59.295Z,13.37
2018-10-11T00:30:39.531Z,14.97
2018-10-11T00:31:19.611Z,13.57
2018-10-11T00:31:59.813Z,13.03
2018-10-11T00:32:40.968Z,13.43
2018-10-11T00:33:21.107Z,13.73
2018-10-11T00:34:01.036Z,13.67
2018-10-11T00:34:41.256Z,13.30
2018-10-11T00:35:21.401Z,13.80
2018-10-11T00:36:01.457Z,13.93
2018-10-11T00:36:41.670Z,12.67
2018-10-11T00:37:21.913Z,12.73
2018-10-11T00:38:02.162Z,12.90
2018-10-11T00:38:42.301Z,15.17
2018-10-11T00:39:22.320Z,12.83
2018-10-11T00:40:02.496Z,14.03
2018-10-11T00:40:43.460Z,13.53
2018-10-11T00:41:23.925Z,13.27
2018-10-11T00:42:04.149Z,14.10
2018-10-11T00:42:45.060Z,13.17
2018-10-11T00:43:25.561Z,13.20
2018-10-11T00:44:05.790Z,13.87
2018-10-11T00:44:46.009Z,12.97
2018-10-11T00:45:26.048Z,14.17
2018-10-11T00:46:06.196Z,13.47
2018-10-11T00:46:47.462Z,12.93
2018-10-11T00:47:27.621Z,12.93
2018-10-11T00:48:08.006Z,13.53
2018-10-11T00:48:48.407Z,12.93
2018-10-11T00:49:28.817Z,12.70
2018-10-11T00:50:09.748Z,13.47
2018-10-11T00:50:50.031Z,13.63
2018-10-11T00:51:30.339Z,13.70
2018-10-11T00:52:10.459Z,14.23
2018-10-11T00:52:50.811Z,13.13
2018-10-11T00:53:30.997Z,13.13
2018-10-11T00:54:11.631Z,13.30
2018-10-11T00:54:51.685Z,13.00
2018-10-11T00:55:31.983Z,13.70
2018-10-11T00:56:12.280Z,12.83
2018-10-11T00:56:52.473Z,17.17
2018-10-11T00:57:32.580Z,15.60
2018-10-11T00:58:12.879Z,12.70
2018-10-11T00:58:52.976Z,13.73
2018-10-11T00:59:33.401Z,13.77
2018-10-11T01:00:13.677Z,12.67
2018-10-11T01:00:53.822Z,14.47
2018-10-11T01:01:33.937Z,16.33
2018-10-11T01:02:14.171Z,12.93
2018-10-11T01:02:54.337Z,12.67
2018-10-11T01:03:34.239Z,13.27
2018-10-11T01:04:14.500Z,15.37
2018-10-11T01:04:54.628Z,13.20
2018-10-11T01:05:34.897Z,13.10
2018-10-11T01:06:15.401Z,12.13
2018-10-11T01:06:55.492Z,13.93
2018-10-11T01:07:35.607Z,12.93
2018-10-11T01:08:16.373Z,15.77
2018-10-11T01:08:56.298Z,13.30
2018-10-11T01:09:36.497Z,11.97
2018-10-11T01:10:16.606Z,12.73
2018-10-11T01:10:57.144Z,12.87
2018-10-11T01:11:37.289Z,13.77
2018-10-11T01:12:17.272Z,14.00
2018-10-11T01:12:57.732Z,13.17
2018-10-11T01:13:38.277Z,13.40
2018-10-11T01:14:18.481Z,12.50
2018-10-11T01:14:58.790Z,13.47
2018-10-11T01:15:39.165Z,13.47
2018-10-11T01:16:19.369Z,12.33
2018-10-11T01:16:59.450Z,12.80
2018-10-11T01:17:39.595Z,12.43
2018-10-11T01:18:19.957Z,13.47
2018-10-11T01:19:00.020Z,12.97
2018-10-11T01:19:40.905Z,12.83
2018-10-11T01:20:21.143Z,13.03
2018-10-11T01:21:01.530Z,13.17
2018-10-11T01:21:41.684Z,14.80
2018-10-11T01:22:21.834Z,13.97
2018-10-11T01:23:02.860Z,13.53
2018-10-11T01:23:43.116Z,12.83
2018-10-11T01:24:23.591Z,13.97
2018-10-11T01:25:05.514Z,11.93
2018-10-11T01:25:48.709Z,13.33
2018-10-11T01:26:29.633Z,12.73
2018-10-11T01:27:10.712Z,12.43
2018-10-11T01:27:51.337Z,13.10
2018-10-11T01:28:33.931Z,13.67
2018-10-11T01:29:15.158Z,13.70
2018-10-11T01:29:59.950Z,13.60
2018-10-11T01:30:47.537Z,13.17
2018-10-11T01:31:32.642Z,13.97
2018-10-11T01:32:13.984Z,13.50
2018-10-11T01:32:54.128Z,13.43
2018-10-11T01:33:34.240Z,13.50
2018-10-11T01:34:14.468Z,13.57
2018-10-11T01:34:55.200Z,14.03
2018-10-11T01:35:35.172Z,13.57
2018-10-11T01:36:15.793Z,12.93
2018-10-11T01:36:55.897Z,13.07
2018-10-11T01:37:35.942Z,12.87
2018-10-11T01:38:16.303Z,12.80
2018-10-11T01:38:56.629Z,12.57
2018-10-11T01:39:36.919Z,13.57
2018-10-11T01:40:17.176Z,13.50
2018-10-11T01:40:57.251Z,13.70
2018-10-11T01:41:37.597Z,13.60
2018-10-11T01:42:17.909Z,13.43
2018-10-11T01:43:04.394Z,12.97
2018-10-11T01:43:44.397Z,13.33
2018-10-11T01:44:24.612Z,13.90
2018-10-11T01:45:05.592Z,13.60
2018-10-11T01:45:45.832Z,13.80
2018-10-11T01:46:25.977Z,12.37
2018-10-11T01:47:06.689Z,13.07
2018-10-11T01:47:46.922Z,13.27
2018-10-11T01:48:27.200Z,12.97
2018-10-11T01:49:07.628Z,13.00
2018-10-11T01:49:48.300Z,12.60
2018-10-11T01:50:29.062Z,13.83
2018-10-11T01:51:09.715Z,13.00
2018-10-11T01:51:49.819Z,13.67
2018-10-11T01:52:30.115Z,13.47
2018-10-11T01:53:10.679Z,13.30
2018-10-11T01:53:50.921Z,13.17
2018-10-11T01:54:32.879Z,13.90
2018-10-11T01:55:12.892Z,13.20
2018-10-11T01:55:53.781Z,13.17
2018-10-11T01:56:34.212Z,12.63
2018-10-11T01:57:14.506Z,13.20
2018-10-11T01:57:55.834Z,12.67
2018-10-11T01:58:36.557Z,12.63
2018-10-11T01:59:18.856Z,13.57
2018-10-11T01:59:58.864Z,14.30
2018-10-11T02:00:39.643Z,13.33
2018-10-11T02:01:19.832Z,13.20
2018-10-11T02:02:00.244Z,15.10
2018-10-11T02:02:40.224Z,16.23
2018-10-11T02:03:20.653Z,13.30
2018-10-11T02:04:00.831Z,12.93
2018-10-11T02:04:41.246Z,15.07
2018-10-11T02:05:21.643Z,13.80
2018-10-11T02:06:01.920Z,12.27
2018-10-11T02:06:42.168Z,12.97
2018-10-11T02:07:22.230Z,12.33
2018-10-11T02:08:02.251Z,14.13
2018-10-11T02:08:42.356Z,15.67
2018-10-11T02:09:22.504Z,13.50
2018-10-11T02:10:02.853Z,13.23
2018-10-11T02:10:43.231Z,13.57
2018-10-11T02:11:23.345Z,13.00
2018-10-11T02:12:03.517Z,12.93
2018-10-11T02:12:43.611Z,12.97
2018-10-11T02:13:24.092Z,13.87
2018-10-11T02:14:04.144Z,13.23
2018-10-11T02:14:44.319Z,13.80
2018-10-11T02:15:25.248Z,14.23
2018-10-11T02:16:05.342Z,13.37
2018-10-11T02:16:45.511Z,13.53
2018-10-11T02:17:25.697Z,13.90
2018-10-11T02:18:05.880Z,13.63
2018-10-11T02:18:46.224Z,13.63
2018-10-11T02:19:26.412Z,14.33
2018-10-11T02:20:07.333Z,13.37
2018-10-11T02:20:47.514Z,14.37
2018-10-11T02:21:27.713Z,12.70
2018-10-11T02:22:07.811Z,12.67
2018-10-11T02:22:47.973Z,14.30
2018-10-11T02:23:28.239Z,13.93
2018-10-11T02:24:08.746Z,12.17
2018-10-11T02:24:49.363Z,13.23
2018-10-11T02:25:29.511Z,13.70
2018-10-11T02:26:09.833Z,15.77
2018-10-11T02:26:49.842Z,13.77
2018-10-11T02:27:29.968Z,12.90
2018-10-11T02:28:10.453Z,13.77
2018-10-11T02:28:50.617Z,12.87
2018-10-11T02:29:30.605Z,13.17
2018-10-11T02:30:11.612Z,13.53
2018-10-11T02:30:51.511Z,14.07
2018-10-11T02:31:31.833Z,14.50
2018-10-11T02:32:11.924Z,13.37
2018-10-11T02:32:52.314Z,13.90
2018-10-11T02:33:32.607Z,14.27
2018-10-11T02:34:12.513Z,13.50
2018-10-11T02:34:52.906Z,14.70
2018-10-11T02:35:33.205Z,13.60
2018-10-11T02:36:13.363Z,14.03
2018-10-11T02:36:53.540Z,12.87
2018-10-11T02:37:33.636Z,14.00
2018-10-11T02:38:14.211Z,13.80
2018-10-11T02:38:54.389Z,12.97
2018-10-11T02:39:35.523Z,13.63
2018-10-11T02:40:15.495Z,13.30
2018-10-11T02:40:55.944Z,13.60
2018-10-11T02:41:36.174Z,13.00
2018-10-11T02:42:16.392Z,14.10
2018-10-11T02:42:56.557Z,13.77
2018-10-11T02:43:36.884Z,13.73
2018-10-11T02:44:16.950Z,14.07
2018-10-11T02:44:57.441Z,13.83
2018-10-11T02:45:37.713Z,14.10
2018-10-11T02:46:17.813Z,13.17
2018-10-11T02:46:58.217Z,15.27
2018-10-11T02:47:38.255Z,14.10
2018-10-11T02:48:18.602Z,14.07
2018-10-11T02:48:58.799Z,14.00
2018-10-11T02:49:39.150Z,13.77
2018-10-11T02:50:19.924Z,13.70
2018-10-11T02:51:00.536Z,13.37
2018-10-11T02:51:40.777Z,13.67
2018-10-11T02:52:20.836Z,15.00
2018-10-11T02:53:01.276Z,14.30
2018-10-11T02:53:41.394Z,13.63
2018-10-11T02:54:21.501Z,15.53
2018-10-11T02:55:01.905Z,15.20
2018-10-11T02:55:42.476Z,14.07
2018-10-11T02:56:23.144Z,13.30
2018-10-11T02:57:04.375Z,13.43
2018-10-11T02:57:56.241Z,13.93
2018-10-11T02:58:47.646Z,13.60
2018-10-11T02:59:30.835Z,14.23
2018-10-11T03:00:10.998Z,13.70
2018-10-11T03:00:51.833Z,14.30
2018-10-11T03:01:32.735Z,13.97
2018-10-11T03:02:13.969Z,14.03
2018-10-11T03:02:54.478Z,14.93
2018-10-11T03:03:36.149Z,13.83
2018-10-11T03:04:16.470Z,14.47
2018-10-11T03:04:56.697Z,15.23
2018-10-11T03:05:39.836Z,14.40
2018-10-11T03:06:20.075Z,15.27
2018-10-11T03:07:00.209Z,14.67
2018-10-11T03:07:40.477Z,14.23
2018-10-11T03:08:25.503Z,14.97
2018-10-11T03:09:06.860Z,14.40
2018-10-11T03:09:48.132Z,13.67
2018-10-11T03:10:28.865Z,14.90
2018-10-11T03:11:09.218Z,14.50
2018-10-11T03:11:49.585Z,15.10
2018-10-11T03:12:29.739Z,15.23
2018-10-11T03:13:11.892Z,15.07
2018-10-11T03:13:51.824Z,15.30
2018-10-11T03:14:32.102Z,14.23
2018-10-11T03:15:12.435Z,15.10
2018-10-11T03:15:52.669Z,14.33
2018-10-11T03:16:32.921Z,14.03
2018-10-11T03:17:13.177Z,14.90
2018-10-11T03:17:53.408Z,14.60
2018-10-11T03:18:33.650Z,15.27
2018-10-11T03:19:13.769Z,15.13
2018-10-11T03:19:53.909Z,18.00
2018-10-11T03:20:34.042Z,15.60
2018-10-11T03:21:14.045Z,15.23
2018-10-11T03:21:54.473Z,14.50
2018-10-11T03:22:34.742Z,14.80
2018-10-11T03:23:15.436Z,15.13
2018-10-11T03:23:55.536Z,15.20
2018-10-11T03:24:35.566Z,16.03
2018-10-11T03:25:15.792Z,15.80
2018-10-11T03:25:56.391Z,15.23
2018-10-11T03:26:36.800Z,15.60
2018-10-11T03:27:17.006Z,15.03
2018-10-11T03:27:57.166Z,14.87
2018-10-11T03:28:37.480Z,15.47
2018-10-11T03:29:18.053Z,15.10
2018-10-11T03:29:58.477Z,15.50
2018-10-11T03:30:39.837Z,14.87
2018-10-11T03:31:20.054Z,15.40
2018-10-11T03:32:00.291Z,15.50
2018-10-11T03:32:40.689Z,15.03
2018-10-11T03:33:20.971Z,14.70
2018-10-11T03:34:01.195Z,15.33
2018-10-11T03:34:41.893Z,15.20
2018-10-11T03:35:22.344Z,15.80
2018-10-11T03:36:02.532Z,15.73
2018-10-11T03:36:42.885Z,16.10
2018-10-11T03:37:23.587Z,16.13
2018-10-11T03:38:03.624Z,15.23
2018-10-11T03:38:43.809Z,17.40
2018-10-11T03:39:24.151Z,16.23
2018-10-11T03:40:05.295Z,16.83
2018-10-11T03:40:45.344Z,17.77
2018-10-11T03:41:25.691Z,16.43
2018-10-11T03:42:07.050Z,15.10
2018-10-11T03:42:47.346Z,14.77
2018-10-11T03:43:27.617Z,15.13
2018-10-11T03:44:09.121Z,15.13
2018-10-11T03:44:49.277Z,15.07
2018-10-11T03:45:29.434Z,16.00
2018-10-11T03:46:10.035Z,15.97
2018-10-11T03:46:50.118Z,15.57
2018-10-11T03:47:30.498Z,14.03
2018-10-11T03:48:10.796Z,15.43
2018-10-11T03:48:51.066Z,15.53
2018-10-11T03:49:31.297Z,15.33
2018-10-11T03:50:11.874Z,15.17
2018-10-11T03:50:52.340Z,15.27
2018-10-11T03:51:32.852Z,16.23
2018-10-11T03:52:13.188Z,15.87
2018-10-11T03:52:53.267Z,17.03
2018-10-11T03:53:33.475Z,16.70
2018-10-11T03:54:13.927Z,15.07
2018-10-11T03:54:54.062Z,15.67
2018-10-11T03:55:34.454Z,16.00
2018-10-11T03:56:14.623Z,15.53
2018-10-11T03:56:54.995Z,15.20
2018-10-11T03:57:35.279Z,16.57
2018-10-11T03:58:15.477Z,16.67
2018-10-11T03:58:56.113Z,15.83
2018-10-11T03:59:36.293Z,16.33
2018-10-11T04:00:16.764Z,16.03
2018-10-11T04:00:57.028Z,16.20
2018-10-11T04:01:37.396Z,16.77
2018-10-11T04:02:17.524Z,16.80
2018-10-11T04:02:57.902Z,15.97
2018-10-11T04:03:38.204Z,15.73
2018-10-11T04:04:18.601Z,15.93
2018-10-11T04:04:58.695Z,16.07
2018-10-11T04:05:38.936Z,14.83
2018-10-11T04:06:19.220Z,16.37
2018-10-11T04:06:59.551Z,16.57
2018-10-11T04:07:39.862Z,16.87
2018-10-11T04:08:20.153Z,17.60
2018-10-11T04:09:00.599Z,16.37
2018-10-11T04:09:41.444Z,16.23
2018-10-11T04:10:21.776Z,16.10
2018-10-11T04:11:02.073Z,16.30
2018-10-11T04:11:42.762Z,16.30
2018-10-11T04:12:23.260Z,16.10
2018-10-11T04:13:03.904Z,15.80
2018-10-11T04:13:44.352Z,16.43
2018-10-11T04:14:24.823Z,16.03
2018-10-11T04:15:05.171Z,17.20
2018-10-11T04:15:45.450Z,16.93
2018-10-11T04:16:25.822Z,17.27
2018-10-11T04:17:06.556Z,15.73
2018-10-11T04:17:47.267Z,15.93
2018-10-11T04:18:27.772Z,16.37
2018-10-11T04:19:08.228Z,16.13
2018-10-11T04:19:48.144Z,16.47
2018-10-11T04:20:28.313Z,16.13
2018-10-11T04:21:08.966Z,16.30
2018-10-11T04:21:49.361Z,16.27
2018-10-11T04:22:29.848Z,15.90
2018-10-11T04:23:14.616Z,16.03
2018-10-11T04:23:54.656Z,16.50
2018-10-11T04:24:34.928Z,16.40
2018-10-11T04:25:15.750Z,15.80
2018-10-11T04:25:56.311Z,17.53
2018-10-11T04:26:36.416Z,16.03
2018-10-11T04:27:16.658Z,16.60
2018-10-11T04:27:57.067Z,16.90
2018-10-11T04:28:37.149Z,16.33
2018-10-11T04:29:17.762Z,16.87
2018-10-11T04:29:57.870Z,16.80
2018-10-11T04:30:38.377Z,16.10
2018-10-11T04:31:18.664Z,16.03
2018-10-11T04:31:58.902Z,16.80
2018-10-11T04:32:39.136Z,16.13
2018-10-11T04:33:19.494Z,17.40
2018-10-11T04:33:59.971Z,16.03
2018-10-11T04:34:40.184Z,16.90
2018-10-11T04:35:22.993Z,17.27
2018-10-11T04:36:02.995Z,17.03
2018-10-11T04:36:43.603Z,16.73
2018-10-11T04:37:23.817Z,17.03
2018-10-11T04:38:04.047Z,15.80
2018-10-11T04:38:44.390Z,17.07
2018-10-11T04:39:24.536Z,16.80
2018-10-11T04:40:04.861Z,17.53
2018-10-11T04:40:45.588Z,16.23
2018-10-11T04:41:25.976Z,17.10
2018-10-11T04:42:07.055Z,17.47
2018-10-11T04:42:47.339Z,17.47
2018-10-11T04:43:27.361Z,17.50
2018-10-11T04:44:07.507Z,16.63
2018-10-11T04:44:47.882Z,16.70
2018-10-11T04:45:28.248Z,16.50
2018-10-11T04:46:08.492Z,17.67
2018-10-11T04:46:49.519Z,16.33
2018-10-11T04:47:29.534Z,16.63
2018-10-11T04:48:10.196Z,16.97
2018-10-11T04:48:50.614Z,18.27
2018-10-11T04:49:30.954Z,16.40
2018-10-11T04:50:11.077Z,17.27
2018-10-11T04:50:51.428Z,17.63
2018-10-11T04:51:31.709Z,17.20
2018-10-11T04:52:12.237Z,18.40
2018-10-11T04:52:52.377Z,17.03
2018-10-11T04:53:32.469Z,16.77
2018-10-11T04:54:12.860Z,17.33
2018-10-11T04:54:53.300Z,17.87
2018-10-11T04:55:33.671Z,18.20
2018-10-11T04:56:13.810Z,17.83
2018-10-11T04:56:53.817Z,17.30
2018-10-11T04:57:34.463Z,17.30
2018-10-11T04:58:14.731Z,18.67
2018-10-11T04:58:55.144Z,17.23
2018-10-11T04:59:35.227Z,17.13
2018-10-11T05:00:16.421Z,17.77
2018-10-11T05:00:56.633Z,17.27
2018-10-11T05:01:36.779Z,18.37
2018-10-11T05:02:17.288Z,17.93
2018-10-11T05:02:57.452Z,17.97
2018-10-11T05:03:37.676Z,18.47
2018-10-11T05:04:18.193Z,17.03
2018-10-11T05:04:58.557Z,17.20
2018-10-11T05:05:39.378Z,18.33
2018-10-11T05:06:20.041Z,17.50
2018-10-11T05:07:00.160Z,17.63
2018-10-11T05:07:41.415Z,18.37
2018-10-11T05:08:21.622Z,17.77
2018-10-11T05:09:01.919Z,17.97
2018-10-11T05:09:42.047Z,18.07
2018-10-11T05:10:23.160Z,18.13
2018-10-11T05:11:03.581Z,18.00
2018-10-11T05:11:43.842Z,19.23
2018-10-11T05:12:24.390Z,17.53
2018-10-11T05:13:04.437Z,18.43
2018-10-11T05:13:49.838Z,17.77
2018-10-11T05:14:30.658Z,17.17
2018-10-11T05:15:11.992Z,17.80
2018-10-11T05:15:52.477Z,17.83
2018-10-11T05:16:32.609Z,17.73
2018-10-11T05:17:13.748Z,18.57
2018-10-11T05:17:54.166Z,18.10
2018-10-11T05:18:34.853Z,17.47
2018-10-11T05:19:15.189Z,17.73
2018-10-11T05:19:55.228Z,18.40
2018-10-11T05:20:35.305Z,17.37
2018-10-11T05:21:15.286Z,18.47
2018-10-11T05:21:55.799Z,19.03
2018-10-11T05:22:35.964Z,18.90
2018-10-11T05:23:15.982Z,18.57
2018-10-11T05:23:56.215Z,18.53
2018-10-11T05:24:36.466Z,18.90
2018-10-11T05:25:16.867Z,18.87
2018-10-11T05:25:57.096Z,18.90
2018-10-11T05:26:37.416Z,18.37
2018-10-11T05:27:18.005Z,19.33
2018-10-11T05:27:58.064Z,19.10
2018-10-11T05:28:38.203Z,18.23
2018-10-11T05:29:18.353Z,18.90
2018-10-11T05:29:58.371Z,19.00
2018-10-11T05:30:41.065Z,18.40
2018-10-11T05:31:21.451Z,18.50
2018-10-11T05:32:01.436Z,19.30
2018-10-11T05:32:41.925Z,19.50
2018-10-11T05:33:22.267Z,19.17
2018-10-11T05:34:02.370Z,18.83
2018-10-11T05:34:42.772Z,19.07
2018-10-11T05:35:23.193Z,19.77
2018-10-11T05:36:04.338Z,19.33
2018-10-11T05:36:44.624Z,18.50
2018-10-11T05:37:24.723Z,18.77
2018-10-11T05:38:05.219Z,20.23
2018-10-11T05:38:45.464Z,19.10
2018-10-11T05:39:25.573Z,18.80
2018-10-11T05:40:05.888Z,19.43
2018-10-11T05:40:46.004Z,20.30
2018-10-11T05:41:26.310Z,19.40
2018-10-11T05:42:06.686Z,18.37
2018-10-11T05:42:47.157Z,20.27
2018-10-11T05:43:28.038Z,18.83
2018-10-11T05:44:08.815Z,19.43
2018-10-11T05:44:49.646Z,20.20
2018-10-11T05:45:29.966Z,19.63
2018-10-11T05:46:12.933Z,19.97
2018-10-11T05:46:53.274Z,23.90
2018-10-11T05:47:33.779Z,19.77
2018-10-11T05:48:14.156Z,19.33
2018-10-11T05:48:55.116Z,20.17
2018-10-11T05:49:35.410Z,20.23
2018-10-11T05:50:15.985Z,19.83
2018-10-11T05:50:57.089Z,20.50
2018-10-11T05:51:37.424Z,20.13
2018-10-11T05:52:17.679Z,19.33
2018-10-11T05:52:58.566Z,20.33
2018-10-11T05:53:38.906Z,20.73
2018-10-11T05:54:19.384Z,19.83
2018-10-11T05:54:59.939Z,20.63
2018-10-11T05:55:40.636Z,20.63
2018-10-11T05:56:22.357Z,20.73
2018-10-11T05:57:02.340Z,20.97
2018-10-11T05:57:43.008Z,20.77
2018-10-11T05:58:23.291Z,21.40
2018-10-11T05:59:04.476Z,21.60
2018-10-11T05:59:44.741Z,19.30
2018-10-11T06:00:25.190Z,20.97
2018-10-11T06:01:05.654Z,19.57
2018-10-11T06:01:45.760Z,19.57
2018-10-11T06:02:26.268Z,23.03
2018-10-11T06:03:06.560Z,20.03
2018-10-11T06:03:47.004Z,21.33
2018-10-11T06:04:27.787Z,19.97
2018-10-11T06:05:08.092Z,20.47
2018-10-11T06:05:48.047Z,20.93
2018-10-11T06:06:28.471Z,20.23
2018-10-11T06:07:08.785Z,19.80
2018-10-11T06:07:49.506Z,20.30
2018-10-11T06:08:29.562Z,20.20
2018-10-11T06:09:10.696Z,20.43
2018-10-11T06:09:50.803Z,19.63
2018-10-11T06:10:33.747Z,20.53
2018-10-11T06:11:14.401Z,19.50
2018-10-11T06:11:55.238Z,20.20
2018-10-11T06:12:35.404Z,20.83
2018-10-11T06:13:15.576Z,19.40
2018-10-11T06:13:55.921Z,20.07
2018-10-11T06:14:36.296Z,20.53
2018-10-11T06:15:16.455Z,20.57
2018-10-11T06:15:56.826Z,20.20
2018-10-11T06:16:37.187Z,20.07
2018-10-11T06:17:17.542Z,20.27
2018-10-11T06:17:57.566Z,20.50
2018-10-11T06:18:37.699Z,21.20
2018-10-11T06:19:17.981Z,20.70
2018-10-11T06:19:58.419Z,20.87
2018-10-11T06:20:38.988Z,21.03
2018-10-11T06:21:19.208Z,21.73
2018-10-11T06:21:59.343Z,20.93
2018-10-11T06:22:40.613Z,20.50
2018-10-11T06:23:20.859Z,21.00
2018-10-11T06:24:01.365Z,20.20
2018-10-11T06:24:41.945Z,20.83
2018-10-11T06:25:22.062Z,24.10
2018-10-11T06:26:02.356Z,21.07
2018-10-11T06:26:42.563Z,21.10
2018-10-11T06:27:22.605Z,21.73
2018-10-11T06:28:03.080Z,21.77
2018-10-11T06:28:43.389Z,20.90
2018-10-11T06:29:23.524Z,22.13
2018-10-11T06:30:03.927Z,21.03
2018-10-11T06:30:44.113Z,21.03
2018-10-11T06:31:24.236Z,20.57
2018-10-11T06:32:04.445Z,21.33
2018-10-11T06:32:44.992Z,22.73
2018-10-11T06:33:25.031Z,23.77
2018-10-11T06:34:05.446Z,22.53
2018-10-11T06:34:45.789Z,23.87
2018-10-11T06:35:26.342Z,22.70
2018-10-11T06:36:06.697Z,23.27
2018-10-11T06:36:46.920Z,23.47
2018-10-11T06:37:27.616Z,21.03
2018-10-11T06:38:07.683Z,21.60
2018-10-11T06:38:47.961Z,22.60
2018-10-11T06:39:28.135Z,23.20
2018-10-11T06:40:08.336Z,21.67
2018-10-11T06:40:48.516Z,22.20
2018-10-11T06:41:28.626Z,22.10
2018-10-11T06:42:08.792Z,21.43
2018-10-11T06:42:49.136Z,22.53
2018-10-11T06:43:29.325Z,21.60
2018-10-11T06:44:10.390Z,22.20
2018-10-11T06:44:50.454Z,22.67
2018-10-11T06:45:31.034Z,23.90
2018-10-11T06:46:12.087Z,23.00
2018-10-11T06:46:52.709Z,23.87
2018-10-11T06:47:32.917Z,21.70
2018-10-11T06:48:13.218Z,23.40
2018-10-11T06:48:53.432Z,22.40
2018-10-11T06:49:33.716Z,22.43
2018-10-11T06:50:14.180Z,22.43
2018-10-11T06:50:54.452Z,23.73
2018-10-11T06:51:34.666Z,22.57
2018-10-11T06:52:15.596Z,22.43
2018-10-11T06:52:56.044Z,22.93
2018-10-11T06:53:36.539Z,22.87
2018-10-11T06:54:17.032Z,22.37
2018-10-11T06:54:57.064Z,23.00
2018-10-11T06:55:37.220Z,23.73
2018-10-11T06:56:17.394Z,23.40
2018-10-11T06:56:57.699Z,22.60
2018-10-11T06:57:38.090Z,22.43
2018-10-11T06:58:18.214Z,23.30
2018-10-11T06:59:05.190Z,20.67
2018-10-11T06:59:45.416Z,22.43
2018-10-11T07:00:25.457Z,22.33
2018-10-11T07:01:05.785Z,22.67
2018-10-11T07:01:46.025Z,22.70
2018-10-11T07:02:25.987Z,22.67
2018-10-11T07:03:06.165Z,21.80
2018-10-11T07:03:46.089Z,22.03
2018-10-11T07:04:26.403Z,22.73
2018-10-11T07:05:06.352Z,22.33
2018-10-11T07:05:46.373Z,21.27
2018-10-11T07:06:26.663Z,21.63
2018-10-11T07:07:07.230Z,22.20
2018-10-11T07:07:47.368Z,22.07
2018-10-11T07:08:27.348Z,22.03
2018-10-11T07:09:08.647Z,21.33
2018-10-11T07:09:48.759Z,21.67
2018-10-11T07:10:28.876Z,21.07
2018-10-11T07:11:09.298Z,22.67
2018-10-11T07:11:49.382Z,23.13
2018-10-11T07:12:29.652Z,21.80
2018-10-11T07:13:09.999Z,23.80
2018-10-11T07:13:50.116Z,22.63
2018-10-11T07:14:30.200Z,22.97
2018-10-11T07:15:10.589Z,22.20
2018-10-11T07:15:50.595Z,21.87
2018-10-11T07:16:30.707Z,21.60
2018-10-11T07:17:11.114Z,22.83
2018-10-11T07:17:51.228Z,21.20
2018-10-11T07:18:31.414Z,22.77
2018-10-11T07:19:11.627Z,22.43
2018-10-11T07:19:51.914Z,22.07
2018-10-11T07:20:32.255Z,21.23
2018-10-11T07:21:12.434Z,23.13
2018-10-11T07:21:52.664Z,22.67
2018-10-11T07:22:32.884Z,21.77
2018-10-11T07:23:13.507Z,22.40
2018-10-11T07:23:53.537Z,21.83
2018-10-11T07:24:33.639Z,21.20
2018-10-11T07:25:13.983Z,20.67
2018-10-11T07:25:54.229Z,22.97
2018-10-11T07:26:34.677Z,22.30
2018-10-11T07:27:15.137Z,22.30
2018-10-11T07:27:55.407Z,22.67
2018-10-11T07:28:35.710Z,22.20
2018-10-11T07:29:22.668Z,22.90
2018-10-11T07:30:03.372Z,21.43
2018-10-11T07:30:43.920Z,21.53
2018-10-11T07:31:23.912Z,21.20
2018-10-11T07:32:04.193Z,22.67
2018-10-11T07:32:44.473Z,23.10
2018-10-11T07:33:24.725Z,24.03
2018-10-11T07:34:04.830Z,22.13
2018-10-11T07:34:45.000Z,23.07
2018-10-11T07:35:25.362Z,21.83
2018-10-11T07:36:05.459Z,22.10
2018-10-11T07:36:45.844Z,22.80
2018-10-11T07:37:26.047Z,22.87
2018-10-11T07:38:06.216Z,21.67
2018-10-11T07:38:46.906Z,22.03
2018-10-11T07:39:26.988Z,21.57
2018-10-11T07:40:07.639Z,22.50
2018-10-11T07:40:47.983Z,22.10
2018-10-11T07:41:28.074Z,21.80
2018-10-11T07:42:08.546Z,22.73
2018-10-11T07:42:48.683Z,22.13
2018-10-11T07:43:29.028Z,23.20
2018-10-11T07:44:09.308Z,23.30
2018-10-11T07:44:49.572Z,23.37
2018-10-11T07:45:29.654Z,22.70
2018-10-11T07:46:10.014Z,23.93
2018-10-11T07:46:50.335Z,22.60
2018-10-11T07:47:30.501Z,24.40
2018-10-11T07:48:10.613Z,45.50
2018-10-11T07:48:50.812Z,53.13
2018-10-11T07:49:31.176Z,30.80
2018-10-11T07:50:11.472Z,27.43
2018-10-11T07:50:51.606Z,22.57
2018-10-11T07:51:31.496Z,23.60
2018-10-11T07:52:11.504Z,22.47
2018-10-11T07:52:51.457Z,22.87
2018-10-11T07:53:31.800Z,24.00
2018-10-11T07:54:11.862Z,23.23
2018-10-11T07:54:52.355Z,21.97
2018-10-11T07:55:32.610Z,22.97
2018-10-11T07:56:12.701Z,22.40
2018-10-11T07:56:53.033Z,21.57
2018-10-11T07:57:33.127Z,22.87
2018-10-11T07:58:13.233Z,23.50
2018-10-11T07:58:53.434Z,21.97
2018-10-11T07:59:33.527Z,22.63
2018-10-11T08:00:13.648Z,22.83
2018-10-11T08:00:54.059Z,22.20
2018-10-11T08:01:34.162Z,23.17
2018-10-11T08:02:14.192Z,22.30
2018-10-11T08:02:54.356Z,22.57
2018-10-11T08:03:34.728Z,23.43
2018-10-11T08:04:15.162Z,21.93
2018-10-11T08:04:55.434Z,23.73
2018-10-11T08:05:35.369Z,23.37
2018-10-11T08:06:15.743Z,22.67
2018-10-11T08:06:55.962Z,22.47
2018-10-11T08:07:36.272Z,22.27
2018-10-11T08:08:16.371Z,23.80
2018-10-11T08:08:56.648Z,23.27
2018-10-11T08:09:36.922Z,23.13
2018-10-11T08:10:18.899Z,23.97
2018-10-11T08:10:59.050Z,22.23
2018-10-11T08:11:39.480Z,22.50
2018-10-11T08:12:19.701Z,21.83
2018-10-11T08:13:00.053Z,23.27
2018-10-11T08:13:40.205Z,23.77
2018-10-11T08:14:21.825Z,23.97
2018-10-11T08:15:01.810Z,22.70
2018-10-11T08:15:42.082Z,25.03
2018-10-11T08:16:22.773Z,23.83
2018-10-11T08:17:02.894Z,25.83
2018-10-11T08:17:43.359Z,23.73
2018-10-11T08:18:23.355Z,21.87
2018-10-11T08:19:03.960Z,22.13
2018-10-11T08:19:44.190Z,21.43
2018-10-11T08:20:24.532Z,23.83
2018-10-11T08:21:04.773Z,21.57
2018-10-11T08:21:44.961Z,27.20
2018-10-11T08:22:25.259Z,22.83
2018-10-11T08:23:05.353Z,24.03
2018-10-11T08:23:45.628Z,25.97
2018-10-11T08:24:25.961Z,24.37
2018-10-11T08:25:06.282Z,78.23
2018-10-11T08:25:46.772Z,32.23
2018-10-11T08:26:27.011Z,24.30
2018-10-11T08:27:06.965Z,21.43
2018-10-11T08:27:47.159Z,22.53
2018-10-11T08:28:27.609Z,21.70
2018-10-11T08:29:07.855Z,21.07
2018-10-11T08:29:47.892Z,21.53
2018-10-11T08:30:28.020Z,21.17
2018-10-11T08:31:09.002Z,20.17
2018-10-11T08:31:49.246Z,20.00
2018-10-11T08:32:29.687Z,20.80
2018-10-11T08:33:10.090Z,21.47
2018-10-11T08:33:50.256Z,20.23
2018-10-11T08:34:30.427Z,20.53
2018-10-11T08:35:10.443Z,19.63
2018-10-11T08:35:50.799Z,20.23
2018-10-11T08:36:30.748Z,19.67
2018-10-11T08:37:10.911Z,22.60
2018-10-11T08:37:51.264Z,19.37
2018-10-11T08:38:31.373Z,18.93
2018-10-11T08:39:12.734Z,19.70
2018-10-11T08:39:53.071Z,20.27
2018-10-11T08:40:33.200Z,19.87
2018-10-11T08:41:13.432Z,20.03